Time;durP1;ratioP1;P1;durP2;ratioP2;P2;SDS_P1;SDS_P2;PMS_P1;PMS_P2;Temp;Humidity;BMP_temperature;BMP_pressure;BME280_temperature;BME280_humidity;BME280_pressure;Samples;Min_cycle;Max_cycle;Signal;HPM_P1;HPM_P2
2023/09/22 00:02:25;;;;;;;5.80;3.80;;;;;;;;;;112017;214;175510;-35
2023/09/22 00:05:01;;;;;;;5.50;3.50;;;;;;;;;;112153;214;43057;-35
2023/09/22 00:07:35;;;;;;;6.20;3.90;;;;;;;;;;112111;214;42250;-35
2023/09/22 00:10:12;;;;;;;5.70;3.40;;;;;;;;;;112021;214;175512;-36
2023/09/22 00:12:47;;;;;;;6.10;3.70;;;;;;;;;;112169;214;39800;-35
2023/09/22 00:15:24;;;;;;;5.50;3.50;;;;;;;;;;112128;214;42914;-35
2023/09/22 00:17:58;;;;;;;5.50;3.50;;;;;;;;;;112075;214;42442;-36
2023/09/22 00:20:32;;;;;;;5.30;3.60;;;;;;;;;;112140;214;38732;-35
2023/09/22 00:23:08;;;;;;;6.10;3.40;;;;;;;;;;112166;214;39763;-35
2023/09/22 00:25:44;;;;;;;5.40;3.30;;;;;;;;;;112132;214;42805;-35
2023/09/22 00:28:20;;;;;;;5.80;3.50;;;;;;;;;;112083;214;42050;-35
2023/09/22 00:30:54;;;;;;;5.80;3.50;;;;;;;;;;112114;214;38903;-35
2023/09/22 00:33:30;;;;;;;5.80;3.70;;;;;;;;;;112080;214;39713;-35
2023/09/22 00:36:06;;;;;;;5.50;3.60;;;;;;;;;;111467;214;893603;-36
2023/09/22 00:38:43;;;;;;;5.70;3.50;;;;;;;;;;112060;214;60333;-33
2023/09/22 00:41:19;;;;;;;6.40;3.50;;;;;;;;;;112148;214;38865;-33
2023/09/22 00:43:53;;;;;;;5.50;3.30;;;;;;;;;;112155;214;39784;-35
2023/09/22 00:46:30;;;;;;;5.80;3.40;;;;;;;;;;112143;214;43301;-35
2023/09/22 00:49:04;;;;;;;5.10;3.40;;;;;;;;;;112109;214;42126;-36
2023/09/22 00:51:39;;;;;;;5.50;3.40;;;;;;;;;;112142;214;38714;-35
2023/09/22 00:54:13;;;;;;;5.40;3.60;;;;;;;;;;112108;214;39735;-35
2023/09/22 00:56:49;;;;;;;5.50;3.40;;;;;;;;;;112159;214;42774;-35
2023/09/22 00:59:23;;;;;;;5.60;3.20;;;;;;;;;;112081;214;42269;-36
2023/09/22 01:02:02;;;;;;;5.80;3.40;;;;;;;;;;112122;214;38987;-35
2023/09/22 01:04:40;;;;;;;5.70;3.40;;;;;;;;;;112170;214;39801;-35
2023/09/22 01:07:15;;;;;;;5.50;3.20;;;;;;;;;;112134;214;42613;-35
2023/09/22 01:09:49;;;;;;;5.40;3.20;;;;;;;;;;112112;214;42352;-35
2023/09/22 01:12:25;;;;;;;5.50;3.50;;;;;;;;;;112145;214;38858;-35
2023/09/22 01:15:00;;;;;;;5.60;3.00;;;;;;;;;;112084;214;39764;-35
2023/09/22 01:17:34;;;;;;;5.20;3.50;;;;;;;;;;112141;214;42799;-35
2023/09/22 01:20:11;;;;;;;5.90;3.50;;;;;;;;;;112090;214;43460;-35
2023/09/22 01:22:44;;;;;;;5.90;3.60;;;;;;;;;;112151;214;38568;-35
2023/09/22 01:25:19;;;;;;;4.90;3.20;;;;;;;;;;112131;214;39972;-35
2023/09/22 01:27:54;;;;;;;5.40;3.50;;;;;;;;;;112106;214;43001;-35
2023/09/22 01:30:32;;;;;;;5.40;3.20;;;;;;;;;;112031;214;47727;-35
2023/09/22 01:33:07;;;;;;;5.90;3.60;;;;;;;;;;112112;214;39963;-35
2023/09/22 01:35:42;;;;;;;4.60;3.00;;;;;;;;;;112187;214;40837;-35
2023/09/22 01:38:19;;;;;;;5.70;3.60;;;;;;;;;;112115;214;44036;-35
2023/09/22 01:40:54;;;;;;;5.40;3.20;;;;;;;;;;112106;214;43532;-36
2023/09/22 01:43:28;;;;;;;5.20;3.60;;;;;;;;;;112143;214;40078;-35
2023/09/22 01:46:03;;;;;;;5.10;3.10;;;;;;;;;;112116;214;39776;-35
2023/09/22 01:48:37;;;;;;;5.20;3.30;;;;;;;;;;112054;214;44230;-35
2023/09/22 01:51:11;;;;;;;5.40;3.30;;;;;;;;;;112021;214;201528;-35
2023/09/22 01:53:45;;;;;;;5.90;3.10;;;;;;;;;;112101;214;38739;-35
2023/09/22 01:56:21;;;;;;;5.50;3.30;;;;;;;;;;112133;214;40414;-35
2023/09/22 01:58:55;;;;;;;5.70;3.10;;;;;;;;;;112116;214;42765;-34
2023/09/22 02:01:30;;;;;;;6.20;3.40;;;;;;;;;;112141;214;48171;-35
2023/09/22 02:04:04;;;;;;;6.10;3.70;;;;;;;;;;112166;214;38890;-35
2023/09/22 02:06:39;;;;;;;5.40;3.00;;;;;;;;;;112129;214;39590;-35
2023/09/22 02:09:13;;;;;;;4.90;3.00;;;;;;;;;;112015;214;43139;-35
2023/09/22 02:11:47;;;;;;;5.70;3.40;;;;;;;;;;112151;214;48357;-35
2023/09/22 02:14:21;;;;;;;5.90;3.30;;;;;;;;;;112173;214;38940;-35
2023/09/22 02:16:54;;;;;;;5.80;3.30;;;;;;;;;;112162;214;39842;-35
2023/09/22 02:19:29;;;;;;;5.70;3.30;;;;;;;;;;112118;214;42892;-36
2023/09/22 02:22:03;;;;;;;5.60;3.40;;;;;;;;;;112185;214;47966;-36
2023/09/22 02:24:39;;;;;;;5.50;3.40;;;;;;;;;;112162;214;38705;-35
2023/09/22 02:27:14;;;;;;;5.80;3.20;;;;;;;;;;112148;214;40159;-35
2023/09/22 02:29:49;;;;;;;6.20;3.40;;;;;;;;;;112103;214;42674;-35
2023/09/22 02:32:23;;;;;;;5.30;3.40;;;;;;;;;;112036;214;175546;-35
2023/09/22 02:34:59;;;;;;;5.80;3.20;;;;;;;;;;112131;214;38771;-36
2023/09/22 02:37:34;;;;;;;5.50;3.10;;;;;;;;;;112140;214;39703;-35
2023/09/22 02:40:12;;;;;;;5.50;3.20;;;;;;;;;;112088;214;42913;-36
2023/09/22 02:42:49;;;;;;;6.20;3.10;;;;;;;;;;112100;214;49884;-36
2023/09/22 02:45:25;;;;;;;5.20;3.20;;;;;;;;;;112135;214;38469;-35
2023/09/22 02:47:59;;;;;;;5.40;3.20;;;;;;;;;;112142;214;39451;-35
2023/09/22 02:50:35;;;;;;;5.50;3.50;;;;;;;;;;112066;214;43001;-35
2023/09/22 02:53:10;;;;;;;5.20;3.40;;;;;;;;;;112093;214;49502;-35
2023/09/22 02:55:46;;;;;;;5.20;3.20;;;;;;;;;;112117;214;38783;-35
2023/09/22 02:58:20;;;;;;;4.90;3.20;;;;;;;;;;112152;214;40000;-35
2023/09/22 03:00:54;;;;;;;5.80;3.30;;;;;;;;;;112041;214;42903;-35
2023/09/22 03:03:28;;;;;;;5.20;3.20;;;;;;;;;;112100;214;48626;-36
2023/09/22 03:06:04;;;;;;;5.90;3.40;;;;;;;;;;112108;214;39781;-35
2023/09/22 03:08:37;;;;;;;5.00;3.20;;;;;;;;;;112105;214;41030;-35
2023/09/22 03:11:11;;;;;;;5.50;3.60;;;;;;;;;;112122;214;43995;-35
2023/09/22 03:13:47;;;;;;;5.80;3.00;;;;;;;;;;112157;214;48169;-35
2023/09/22 03:16:21;;;;;;;5.60;3.30;;;;;;;;;;112109;214;39108;-35
2023/09/22 03:18:55;;;;;;;5.20;3.20;;;;;;;;;;112123;214;40965;-35
2023/09/22 03:21:30;;;;;;;5.60;3.00;;;;;;;;;;112095;214;44383;-35
2023/09/22 03:24:06;;;;;;;6.50;3.10;;;;;;;;;;112168;214;48293;-35
2023/09/22 03:26:40;;;;;;;5.80;3.30;;;;;;;;;;112186;214;38988;-34
2023/09/22 03:29:15;;;;;;;5.10;3.30;;;;;;;;;;112122;214;39829;-35
2023/09/22 03:31:49;;;;;;;5.70;3.20;;;;;;;;;;112133;214;42758;-35
2023/09/22 03:34:23;;;;;;;4.80;3.20;;;;;;;;;;112135;214;49908;-35
2023/09/22 03:36:57;;;;;;;5.50;3.20;;;;;;;;;;112148;214;38704;-35
2023/09/22 03:39:32;;;;;;;5.50;3.20;;;;;;;;;;112152;214;39622;-35
2023/09/22 03:42:07;;;;;;;5.50;3.40;;;;;;;;;;112130;214;42741;-35
2023/09/22 03:44:41;;;;;;;5.80;3.30;;;;;;;;;;112135;214;48272;-35
2023/09/22 03:47:17;;;;;;;5.00;3.40;;;;;;;;;;112146;214;38729;-35
2023/09/22 03:49:52;;;;;;;5.60;3.00;;;;;;;;;;112151;214;40198;-34
2023/09/22 03:52:26;;;;;;;5.70;3.30;;;;;;;;;;112112;214;42976;-35
2023/09/22 03:54:59;;;;;;;5.30;3.10;;;;;;;;;;112165;214;48167;-35
2023/09/22 03:57:34;;;;;;;6.30;3.30;;;;;;;;;;112206;214;38713;-35
2023/09/22 04:00:18;;;;;;;5.60;3.30;;;;;;;;;;112138;214;39773;-35
2023/09/22 04:02:52;;;;;;;5.60;3.10;;;;;;;;;;112084;214;42948;-35
2023/09/22 04:05:26;;;;;;;5.10;3.40;;;;;;;;;;112157;214;42484;-34
2023/09/22 04:08:01;;;;;;;5.20;3.20;;;;;;;;;;112199;214;38933;-34
2023/09/22 04:10:35;;;;;;;5.50;3.30;;;;;;;;;;112189;214;39931;-35
2023/09/22 04:13:09;;;;;;;5.30;3.20;;;;;;;;;;112121;214;43100;-35
2023/09/22 04:15:42;;;;;;;5.60;3.00;;;;;;;;;;112179;214;42281;-35
2023/09/22 04:18:16;;;;;;;5.80;3.40;;;;;;;;;;112147;214;39998;-35
2023/09/22 04:20:55;;;;;;;5.70;3.40;;;;;;;;;;112186;214;39788;-35
2023/09/22 04:23:29;;;;;;;5.50;3.10;;;;;;;;;;112107;214;42932;-35
2023/09/22 04:26:09;;;;;;;5.50;3.30;;;;;;;;;;112173;214;43582;-35
2023/09/22 04:28:43;;;;;;;5.60;3.20;;;;;;;;;;112158;214;39289;-35
2023/09/22 04:31:17;;;;;;;6.10;3.40;;;;;;;;;;112201;214;39548;-35
2023/09/22 04:33:51;;;;;;;5.40;3.30;;;;;;;;;;112087;214;43026;-34
2023/09/22 04:36:25;;;;;;;5.20;3.20;;;;;;;;;;112179;214;42300;-34
2023/09/22 04:38:59;;;;;;;5.10;3.00;;;;;;;;;;112172;214;41218;-36
2023/09/22 04:41:35;;;;;;;6.40;3.70;;;;;;;;;;112186;214;41067;-35
2023/09/22 04:44:10;;;;;;;5.50;3.40;;;;;;;;;;112056;214;43050;-35
2023/09/22 04:46:44;;;;;;;5.00;3.00;;;;;;;;;;112140;214;42487;-35
2023/09/22 04:49:18;;;;;;;5.40;3.20;;;;;;;;;;112152;214;38736;-35
2023/09/22 04:51:52;;;;;;;6.00;3.30;;;;;;;;;;112076;214;175549;-35
2023/09/22 04:54:26;;;;;;;5.10;3.10;;;;;;;;;;112122;214;42784;-36
2023/09/22 04:57:00;;;;;;;5.20;3.00;;;;;;;;;;112132;214;42112;-35
2023/09/22 04:59:34;;;;;;;5.30;3.20;;;;;;;;;;112185;214;39160;-35
2023/09/22 05:02:10;;;;;;;5.70;3.40;;;;;;;;;;112176;214;41019;-35
2023/09/22 05:04:44;;;;;;;6.00;3.40;;;;;;;;;;112055;214;42862;-35
2023/09/22 05:07:18;;;;;;;6.10;3.40;;;;;;;;;;112141;214;42590;-35
2023/09/22 05:09:53;;;;;;;5.40;3.40;;;;;;;;;;112168;214;38909;-35
2023/09/22 05:12:27;;;;;;;5.50;3.40;;;;;;;;;;112095;214;39660;-35
2023/09/22 05:15:03;;;;;;;5.80;3.60;;;;;;;;;;112110;214;42939;-35
2023/09/22 05:17:37;;;;;;;5.20;3.10;;;;;;;;;;112153;214;42592;-35
2023/09/22 05:20:14;;;;;;;5.50;3.40;;;;;;;;;;112096;214;41169;-35
2023/09/22 05:22:48;;;;;;;6.30;3.40;;;;;;;;;;112029;214;175574;-36
2023/09/22 05:25:23;;;;;;;6.00;3.20;;;;;;;;;;112061;214;42827;-35
2023/09/22 05:27:58;;;;;;;5.10;3.20;;;;;;;;;;112116;214;42258;-36
2023/09/22 05:30:32;;;;;;;5.90;3.30;;;;;;;;;;112140;214;39136;-35
2023/09/22 05:33:07;;;;;;;6.10;3.20;;;;;;;;;;112127;214;39836;-36
2023/09/22 05:35:41;;;;;;;5.60;3.40;;;;;;;;;;112084;214;42973;-35
2023/09/22 05:38:16;;;;;;;5.90;3.20;;;;;;;;;;112132;214;42211;-35
2023/09/22 05:40:50;;;;;;;5.60;3.30;;;;;;;;;;112035;214;175554;-34
2023/09/22 05:43:24;;;;;;;5.10;3.30;;;;;;;;;;112130;214;39494;-35
2023/09/22 05:46:00;;;;;;;5.60;3.30;;;;;;;;;;112114;214;42849;-36
2023/09/22 05:48:34;;;;;;;6.10;3.40;;;;;;;;;;112068;214;43182;-36
2023/09/22 05:51:07;;;;;;;6.30;3.30;;;;;;;;;;112084;214;39065;-36
2023/09/22 05:53:42;;;;;;;5.00;3.20;;;;;;;;;;112098;214;39819;-36
2023/09/22 05:56:19;;;;;;;6.70;3.30;;;;;;;;;;112055;214;42806;-36
2023/09/22 05:58:52;;;;;;;5.30;3.20;;;;;;;;;;112101;214;42218;-35
2023/09/22 06:01:27;;;;;;;5.10;3.40;;;;;;;;;;112107;214;38909;-35
2023/09/22 06:04:05;;;;;;;6.20;3.30;;;;;;;;;;112126;214;39562;-35
2023/09/22 06:06:42;;;;;;;6.90;3.40;;;;;;;;;;111419;214;893138;-36
2023/09/22 06:09:16;;;;;;;5.50;3.50;;;;;;;;;;112094;214;43373;-35
2023/09/22 06:11:52;;;;;;;5.90;3.80;;;;;;;;;;112152;214;41157;-35
2023/09/22 06:14:26;;;;;;;6.00;3.30;;;;;;;;;;112081;214;39845;-35
2023/09/22 06:17:02;;;;;;;5.90;3.40;;;;;;;;;;112045;214;43239;-35
2023/09/22 06:19:36;;;;;;;6.20;3.60;;;;;;;;;;112128;214;43382;-35
2023/09/22 06:22:11;;;;;;;5.80;3.20;;;;;;;;;;112136;214;40151;-35
2023/09/22 06:24:45;;;;;;;5.90;3.60;;;;;;;;;;112167;214;39691;-35
2023/09/22 06:27:18;;;;;;;6.10;3.60;;;;;;;;;;112073;214;43866;-35
2023/09/22 06:29:54;;;;;;;7.70;3.90;;;;;;;;;;112148;214;42438;-35
2023/09/22 06:32:29;;;;;;;6.80;3.60;;;;;;;;;;112115;214;38746;-36
2023/09/22 06:35:06;;;;;;;6.50;3.70;;;;;;;;;;112105;214;40014;-35
2023/09/22 06:37:41;;;;;;;6.30;3.50;;;;;;;;;;112070;214;43099;-36
2023/09/22 06:40:16;;;;;;;6.30;3.60;;;;;;;;;;112136;214;42231;-35
2023/09/22 06:42:49;;;;;;;6.20;3.60;;;;;;;;;;112115;214;39190;-35
2023/09/22 06:45:23;;;;;;;5.90;3.40;;;;;;;;;;112125;214;39583;-36
2023/09/22 06:47:59;;;;;;;6.40;3.80;;;;;;;;;;112048;214;43022;-35
2023/09/22 06:50:35;;;;;;;5.90;3.30;;;;;;;;;;112161;214;42212;-35
2023/09/22 06:53:11;;;;;;;5.30;3.50;;;;;;;;;;112109;214;38868;-35
2023/09/22 06:55:45;;;;;;;6.20;3.70;;;;;;;;;;112114;214;39632;-35
2023/09/22 06:58:19;;;;;;;7.00;3.80;;;;;;;;;;112071;214;43130;-35
2023/09/22 07:00:56;;;;;;;6.20;3.70;;;;;;;;;;112135;214;42205;-36
2023/09/22 07:03:30;;;;;;;7.10;3.90;;;;;;;;;;112160;214;38411;-36
2023/09/22 07:06:05;;;;;;;6.60;4.00;;;;;;;;;;112141;214;39416;-36
2023/09/22 07:08:43;;;;;;;5.80;3.70;;;;;;;;;;111979;214;48939;-38
2023/09/22 07:11:19;;;;;;;6.30;3.80;;;;;;;;;;112078;214;42255;-37
2023/09/22 07:13:54;;;;;;;7.10;3.80;;;;;;;;;;112076;214;38885;-37
2023/09/22 07:16:35;;;;;;;7.30;3.80;;;;;;;;;;112016;214;39821;-36
2023/09/22 07:19:10;;;;;;;6.00;3.70;;;;;;;;;;112112;214;49184;-35
2023/09/22 07:21:45;;;;;;;7.30;4.00;;;;;;;;;;112067;214;41901;-33
2023/09/22 07:24:18;;;;;;;6.20;3.80;;;;;;;;;;112099;214;38908;-34
2023/09/22 07:26:52;;;;;;;5.90;3.90;;;;;;;;;;112088;214;39957;-34
2023/09/22 07:29:27;;;;;;;8.10;4.20;;;;;;;;;;112154;214;50456;-36
2023/09/22 07:32:03;;;;;;;7.50;3.80;;;;;;;;;;112101;214;44002;-36
2023/09/22 07:34:41;;;;;;;6.80;3.60;;;;;;;;;;112139;214;38741;-35
2023/09/22 07:37:17;;;;;;;7.60;3.90;;;;;;;;;;112054;214;41090;-38
2023/09/22 07:39:53;;;;;;;7.30;3.80;;;;;;;;;;112102;214;42968;-37
2023/09/22 07:42:31;;;;;;;6.30;3.80;;;;;;;;;;112147;214;42300;-37
2023/09/22 07:45:08;;;;;;;6.50;3.90;;;;;;;;;;112127;214;38758;-37
2023/09/22 07:47:41;;;;;;;6.50;3.70;;;;;;;;;;112109;214;39588;-37
2023/09/22 07:50:20;;;;;;;6.30;3.80;;;;;;;;;;112107;214;44084;-37
2023/09/22 07:52:56;;;;;;;7.40;4.30;;;;;;;;;;112085;214;41021;-37
2023/09/22 07:55:31;;;;;;;6.60;4.00;;;;;;;;;;112131;214;38733;-37
2023/09/22 07:58:06;;;;;;;7.10;4.50;;;;;;;;;;111380;214;893729;-37
2023/09/22 08:00:44;;;;;;;7.90;4.00;;;;;;;;;;112118;214;42850;-37
2023/09/22 08:03:19;;;;;;;6.60;4.50;;;;;;;;;;112061;214;175203;-37
2023/09/22 08:05:53;;;;;;;6.40;4.20;;;;;;;;;;112180;214;39000;-37
2023/09/22 08:08:30;;;;;;;6.30;4.00;;;;;;;;;;112107;214;39332;-37
2023/09/22 08:11:06;;;;;;;7.70;4.60;;;;;;;;;;112141;214;43095;-37
2023/09/22 08:13:40;;;;;;;7.20;4.60;;;;;;;;;;112079;214;42290;-37
2023/09/22 08:16:15;;;;;;;7.30;4.70;;;;;;;;;;112204;214;38702;-37
2023/09/22 08:18:49;;;;;;;7.20;4.60;;;;;;;;;;111890;215;39523;-37
2023/09/22 08:21:25;;;;;;;6.40;4.40;;;;;;;;;;112088;215;42753;-37
2023/09/22 08:23:59;;;;;;;7.70;4.50;;;;;;;;;;112043;215;42375;-37
2023/09/22 08:26:33;;;;;;;7.70;4.80;;;;;;;;;;112053;215;38421;-37
2023/09/22 08:29:07;;;;;;;7.80;4.80;;;;;;;;;;112025;215;41859;-37
2023/09/22 08:31:41;;;;;;;6.70;4.70;;;;;;;;;;111881;215;174931;-37
2023/09/22 08:34:16;;;;;;;6.20;4.30;;;;;;;;;;111955;215;42114;-37
2023/09/22 08:36:50;;;;;;;6.80;4.70;;;;;;;;;;112112;215;38916;-37
2023/09/22 08:39:23;;;;;;;8.30;4.90;;;;;;;;;;111864;215;264644;-37
2023/09/22 08:41:59;;;;;;;7.20;4.80;;;;;;;;;;112075;215;44054;-37
2023/09/22 08:44:36;;;;;;;8.00;4.60;;;;;;;;;;112079;215;42721;-37
2023/09/22 08:47:12;;;;;;;6.70;4.60;;;;;;;;;;112040;215;38845;-37
2023/09/22 08:49:50;;;;;;;6.70;4.50;;;;;;;;;;111989;215;40919;-37
2023/09/22 08:52:25;;;;;;;7.30;4.70;;;;;;;;;;112070;215;42790;-37
2023/09/22 08:55:04;;;;;;;7.30;4.80;;;;;;;;;;112043;215;44536;-37
2023/09/22 08:57:38;;;;;;;6.90;4.60;;;;;;;;;;112066;215;40279;-38
2023/09/22 09:00:20;;;;;;;7.80;4.40;;;;;;;;;;111730;215;39929;-38
2023/09/22 09:02:55;;;;;;;6.90;4.50;;;;;;;;;;111762;215;43394;-38
2023/09/22 09:05:33;;;;;;;6.50;4.70;;;;;;;;;;112086;215;43497;-37
2023/09/22 09:08:16;;;;;;;7.60;5.00;;;;;;;;;;112086;215;39023;-38
2023/09/22 09:10:51;;;;;;;6.40;4.50;;;;;;;;;;112014;215;39603;-36
2023/09/22 09:13:27;;;;;;;7.90;4.70;;;;;;;;;;112014;215;42979;-37
2023/09/22 09:16:06;;;;;;;7.60;5.00;;;;;;;;;;112064;215;42305;-40
2023/09/22 09:18:40;;;;;;;6.40;4.60;;;;;;;;;;112083;215;38910;-38
2023/09/22 09:21:15;;;;;;;7.70;4.90;;;;;;;;;;112064;215;40945;-38
2023/09/22 09:23:57;;;;;;;7.60;5.10;;;;;;;;;;112075;215;44077;-37
2023/09/22 09:26:32;;;;;;;8.30;5.20;;;;;;;;;;112079;215;42260;-37
2023/09/22 09:29:07;;;;;;;7.20;5.00;;;;;;;;;;112070;215;38731;-35
2023/09/22 09:31:47;;;;;;;7.10;4.80;;;;;;;;;;112146;215;45399;-36
2023/09/22 09:34:27;;;;;;;7.30;5.20;;;;;;;;;;112047;215;42950;-36
2023/09/22 09:37:14;;;;;;;7.30;4.80;;;;;;;;;;112055;215;42527;-34
2023/09/22 09:39:53;;;;;;;7.40;5.10;;;;;;;;;;112039;215;38744;-35
2023/09/22 09:42:29;;;;;;;6.80;5.00;;;;;;;;;;112076;215;39747;-38
2023/09/22 09:45:05;;;;;;;6.30;4.80;;;;;;;;;;112098;215;42773;-36
2023/09/22 09:47:42;;;;;;;7.50;5.20;;;;;;;;;;112089;215;43372;-38
2023/09/22 09:50:17;;;;;;;8.50;5.50;;;;;;;;;;112077;215;38823;-37
2023/09/22 09:52:56;;;;;;;6.90;5.00;;;;;;;;;;111434;215;893401;-35
2023/09/22 09:55:30;;;;;;;7.30;4.90;;;;;;;;;;112132;215;45088;-37
2023/09/22 09:58:06;;;;;;;7.60;5.10;;;;;;;;;;112058;215;42199;-37
2023/09/22 10:00:43;;;;;;;7.30;5.00;;;;;;;;;;112090;215;38714;-36
2023/09/22 10:03:18;;;;;;;6.90;5.20;;;;;;;;;;112056;215;40952;-36
2023/09/22 10:05:55;;;;;;;7.50;5.20;;;;;;;;;;112075;215;42843;-37
2023/09/22 10:08:30;;;;;;;8.50;5.40;;;;;;;;;;112072;215;42275;-37
2023/09/22 10:11:06;;;;;;;7.60;5.00;;;;;;;;;;112002;215;38927;-36
2023/09/22 10:13:44;;;;;;;8.10;5.20;;;;;;;;;;112028;215;39652;-37
2023/09/22 10:16:31;;;;;;;8.30;5.30;;;;;;;;;;111991;214;42831;-36
2023/09/22 10:19:06;;;;;;;8.00;5.20;;;;;;;;;;112131;214;42249;-35
2023/09/22 10:21:46;;;;;;;7.30;5.40;;;;;;;;;;112017;214;38920;-37
2023/09/22 10:24:24;;;;;;;7.30;5.40;;;;;;;;;;112097;214;39793;-37
2023/09/22 10:27:22;;;;;;;6.20;5.10;;;;;;;;;;112092;214;42760;-36
2023/09/22 10:29:59;;;;;;;7.70;5.20;;;;;;;;;;111902;214;43789;-36
2023/09/22 10:32:33;;;;;;;6.70;5.10;;;;;;;;;;112054;214;38669;-36
2023/09/22 10:35:09;;;;;;;6.50;5.10;;;;;;;;;;112084;214;39839;-35
2023/09/22 10:38:02;;;;;;;7.90;5.20;;;;;;;;;;112061;214;43108;-35
2023/09/22 10:41:07;;;;;;;7.60;5.20;;;;;;;;;;112033;214;42024;-40
2023/09/22 10:44:02;;;;;;;7.00;5.20;;;;;;;;;;112075;214;46101;-35
2023/09/22 10:46:37;;;;;;;7.30;4.90;;;;;;;;;;112104;214;39309;-37
2023/09/22 10:49:32;;;;;;;7.30;5.40;;;;;;;;;;112157;214;44828;-36
2023/09/22 10:52:06;;;;;;;7.80;5.20;;;;;;;;;;112049;214;42483;-37
2023/09/22 10:54:47;;;;;;;7.70;5.20;;;;;;;;;;112019;214;39847;-35
2023/09/22 10:57:33;;;;;;;8.00;5.30;;;;;;;;;;112912;214;39715;-35
2023/09/22 11:00:20;;;;;;;7.30;5.30;;;;;;;;;;112013;214;42807;-35
2023/09/22 11:02:54;;;;;;;6.60;4.80;;;;;;;;;;111927;214;43806;-37
2023/09/22 11:05:28;;;;;;;8.20;5.20;;;;;;;;;;112101;214;38865;-35
2023/09/22 11:08:02;;;;;;;7.10;4.90;;;;;;;;;;112139;214;39587;-35
2023/09/22 11:10:36;;;;;;;8.30;5.00;;;;;;;;;;112138;214;43162;-34
2023/09/22 11:13:13;;;;;;;7.00;4.80;;;;;;;;;;112125;214;42449;-36
2023/09/22 11:15:56;;;;;;;8.00;5.50;;;;;;;;;;112184;214;38726;-36
2023/09/22 11:18:32;;;;;;;7.30;5.30;;;;;;;;;;112199;214;39284;-37
2023/09/22 11:21:09;;;;;;;7.90;5.50;;;;;;;;;;112090;214;44029;-37
2023/09/22 11:23:44;;;;;;;8.80;5.50;;;;;;;;;;112128;214;42058;-35
2023/09/22 11:26:19;;;;;;;7.50;5.30;;;;;;;;;;112220;214;39224;-36
2023/09/22 11:28:53;;;;;;;8.30;5.60;;;;;;;;;;112173;214;39792;-37
2023/09/22 11:31:26;;;;;;;6.60;5.00;;;;;;;;;;112099;214;43031;-37
2023/09/22 11:34:05;;;;;;;7.20;5.50;;;;;;;;;;112078;214;42097;-36
2023/09/22 11:36:52;;;;;;;8.10;5.50;;;;;;;;;;112118;214;38721;-36
2023/09/22 11:39:30;;;;;;;9.30;6.00;;;;;;;;;;112084;214;39918;-36
2023/09/22 11:42:06;;;;;;;7.70;5.60;;;;;;;;;;112130;214;42805;-36
2023/09/22 11:44:39;;;;;;;8.20;5.40;;;;;;;;;;112066;214;42729;-36
2023/09/22 11:47:23;;;;;;;7.80;5.40;;;;;;;;;;112117;214;38740;-37
2023/09/22 11:49:56;;;;;;;7.30;5.70;;;;;;;;;;112119;214;40855;-36
2023/09/22 11:52:34;;;;;;;7.10;5.70;;;;;;;;;;112053;214;42783;-38
2023/09/22 11:55:09;;;;;;;7.20;5.50;;;;;;;;;;112068;214;48486;-41
2023/09/22 11:57:43;;;;;;;8.20;6.00;;;;;;;;;;112069;214;38712;-35
2023/09/22 12:00:20;;;;;;;9.00;5.60;;;;;;;;;;112077;214;39680;-38
2023/09/22 12:02:56;;;;;;;7.70;5.40;;;;;;;;;;112036;214;42954;-39
2023/09/22 12:05:30;;;;;;;8.20;5.80;;;;;;;;;;112059;214;48510;-36
2023/09/22 12:08:09;;;;;;;7.40;5.70;;;;;;;;;;112074;214;38730;-36
2023/09/22 12:10:46;;;;;;;8.70;6.10;;;;;;;;;;112029;214;40881;-36
2023/09/22 12:13:20;;;;;;;8.00;5.70;;;;;;;;;;112074;214;44217;-36
2023/09/22 12:15:55;;;;;;;8.00;5.80;;;;;;;;;;112073;214;42334;-37
2023/09/22 12:18:29;;;;;;;8.20;5.80;;;;;;;;;;112059;214;38920;-37
2023/09/22 12:21:06;;;;;;;8.20;5.50;;;;;;;;;;112068;214;39862;-37
2023/09/22 12:23:39;;;;;;;8.50;5.90;;;;;;;;;;111958;214;175426;-36
2023/09/22 12:26:12;;;;;;;7.60;5.30;;;;;;;;;;112113;214;42178;-37
2023/09/22 12:28:46;;;;;;;9.80;5.60;;;;;;;;;;112042;214;39127;-35
2023/09/22 12:31:24;;;;;;;7.80;5.80;;;;;;;;;;112161;214;39505;-36
2023/09/22 12:34:00;;;;;;;8.40;5.70;;;;;;;;;;112117;214;42581;-37
2023/09/22 12:36:37;;;;;;;8.20;5.80;;;;;;;;;;112054;214;43360;-35
2023/09/22 12:39:13;;;;;;;8.10;5.50;;;;;;;;;;112075;214;38912;-36
2023/09/22 12:41:48;;;;;;;7.70;5.60;;;;;;;;;;112139;214;39946;-35
2023/09/22 12:44:26;;;;;;;8.30;5.50;;;;;;;;;;112068;214;42790;-36
2023/09/22 12:47:02;;;;;;;8.10;5.30;;;;;;;;;;112169;214;42110;-37
2023/09/22 12:49:38;;;;;;;8.30;5.70;;;;;;;;;;111885;214;38749;-37
2023/09/22 12:52:12;;;;;;;7.40;5.30;;;;;;;;;;112062;214;40340;-36
2023/09/22 12:54:46;;;;;;;8.80;5.50;;;;;;;;;;111952;214;42754;-36
2023/09/22 12:57:22;;;;;;;9.50;6.00;;;;;;;;;;112212;214;42168;-36
2023/09/22 13:00:04;;;;;;;7.30;5.30;;;;;;;;;;112127;214;38479;-36
2023/09/22 13:02:39;;;;;;;8.80;5.30;;;;;;;;;;112126;214;41663;-36
2023/09/22 13:05:13;;;;;;;7.20;5.40;;;;;;;;;;112089;214;42943;-36
2023/09/22 13:07:47;;;;;;;7.90;5.30;;;;;;;;;;112094;214;42125;-36
2023/09/22 13:10:24;;;;;;;7.60;5.40;;;;;;;;;;112068;214;38932;-36
2023/09/22 13:13:01;;;;;;;7.40;5.50;;;;;;;;;;112004;214;40181;-36
2023/09/22 13:15:36;;;;;;;7.20;5.80;;;;;;;;;;112067;214;42825;-36
2023/09/22 13:18:13;;;;;;;7.80;5.70;;;;;;;;;;112129;214;42038;-37
2023/09/22 13:20:50;;;;;;;8.50;5.50;;;;;;;;;;112090;214;38469;-37
2023/09/22 13:23:25;;;;;;;6.20;5.00;;;;;;;;;;112098;214;39666;-36
2023/09/22 13:26:04;;;;;;;7.10;5.40;;;;;;;;;;111380;214;893443;-36
2023/09/22 13:28:40;;;;;;;7.80;5.40;;;;;;;;;;112097;214;43216;-36
2023/09/22 13:31:15;;;;;;;7.50;5.30;;;;;;;;;;112097;214;39207;-36
2023/09/22 13:33:50;;;;;;;8.50;5.30;;;;;;;;;;112109;214;39581;-36
2023/09/22 13:36:23;;;;;;;8.70;5.30;;;;;;;;;;112062;214;42850;-36
2023/09/22 13:38:57;;;;;;;7.50;5.20;;;;;;;;;;112105;214;42164;-36
2023/09/22 13:41:34;;;;;;;8.10;5.50;;;;;;;;;;112133;214;39846;-36
2023/09/22 13:44:10;;;;;;;8.40;5.70;;;;;;;;;;112100;214;39738;-36
2023/09/22 13:46:45;;;;;;;7.40;5.20;;;;;;;;;;112057;214;42809;-36
2023/09/22 13:49:21;;;;;;;11.80;6.90;;;;;;;;;;112092;214;42079;-37
2023/09/22 13:51:58;;;;;;;9.80;6.20;;;;;;;;;;112126;214;38728;-36
2023/09/22 13:54:32;;;;;;;8.00;5.90;;;;;;;;;;112042;214;40983;-36
2023/09/22 13:57:06;;;;;;;8.90;5.80;;;;;;;;;;111939;214;44111;-37
2023/09/22 13:59:41;;;;;;;10.10;6.20;;;;;;;;;;111943;214;175404;-36
2023/09/22 14:02:18;;;;;;;10.90;6.80;;;;;;;;;;112095;214;38772;-36
2023/09/22 14:04:54;;;;;;;10.80;6.30;;;;;;;;;;112060;214;40018;-36
2023/09/22 14:07:31;;;;;;;11.00;6.40;;;;;;;;;;112013;214;42766;-35
2023/09/22 14:10:10;;;;;;;11.50;6.70;;;;;;;;;;112041;214;42297;-37
2023/09/22 14:12:43;;;;;;;11.20;6.90;;;;;;;;;;112088;214;38466;-39
2023/09/22 14:15:19;;;;;;;10.70;6.60;;;;;;;;;;112097;214;39652;-37
2023/09/22 14:17:56;;;;;;;11.30;6.60;;;;;;;;;;112005;214;43190;-37
2023/09/22 14:20:32;;;;;;;10.30;6.10;;;;;;;;;;112086;214;42158;-33
2023/09/22 14:23:08;;;;;;;9.60;6.60;;;;;;;;;;112073;214;38721;-34
2023/09/22 14:25:42;;;;;;;10.40;6.40;;;;;;;;;;112101;214;39720;-34
2023/09/22 14:28:17;;;;;;;9.90;6.50;;;;;;;;;;112073;214;42860;-34
2023/09/22 14:30:51;;;;;;;9.40;6.40;;;;;;;;;;112098;214;42109;-34
2023/09/22 14:33:27;;;;;;;11.00;6.70;;;;;;;;;;112080;214;38754;-34
2023/09/22 14:36:09;;;;;;;10.10;6.40;;;;;;;;;;112012;214;39332;-34
2023/09/22 14:38:43;;;;;;;10.60;6.40;;;;;;;;;;112083;214;50676;-35
2023/09/22 14:41:16;;;;;;;8.70;6.20;;;;;;;;;;112083;214;43535;-33
2023/09/22 14:43:50;;;;;;;10.00;6.30;;;;;;;;;;112060;214;39277;-33
2023/09/22 14:46:25;;;;;;;7.80;6.20;;;;;;;;;;112077;214;40987;-33
2023/09/22 14:49:00;;;;;;;8.20;6.30;;;;;;;;;;112100;214;49106;-33
2023/09/22 14:51:36;;;;;;;8.10;6.00;;;;;;;;;;112081;214;42350;-33
2023/09/22 14:54:10;;;;;;;9.50;6.40;;;;;;;;;;112123;214;39079;-34
2023/09/22 14:56:46;;;;;;;8.40;6.40;;;;;;;;;;112057;214;39573;-34
2023/09/22 14:59:23;;;;;;;9.30;6.40;;;;;;;;;;112119;214;49484;-33
2023/09/22 15:01:58;;;;;;;10.00;6.40;;;;;;;;;;112062;214;42046;-34
2023/09/22 15:04:33;;;;;;;8.60;6.30;;;;;;;;;;112099;214;40219;-33
2023/09/22 15:07:09;;;;;;;10.10;6.20;;;;;;;;;;112050;214;40972;-33
2023/09/22 15:09:45;;;;;;;9.10;6.60;;;;;;;;;;112042;214;42958;-33
2023/09/22 15:12:20;;;;;;;8.60;6.30;;;;;;;;;;112129;214;42073;-33
2023/09/22 15:15:00;;;;;;;8.80;6.50;;;;;;;;;;112133;214;38839;-33
2023/09/22 15:17:38;;;;;;;7.50;6.10;;;;;;;;;;112069;214;39918;-33
2023/09/22 15:20:14;;;;;;;8.40;6.00;;;;;;;;;;112085;214;43361;-33
2023/09/22 15:22:54;;;;;;;9.70;6.30;;;;;;;;;;111399;214;893252;-33
2023/09/22 15:25:29;;;;;;;9.30;6.40;;;;;;;;;;112144;214;40375;-33
2023/09/22 15:28:04;;;;;;;7.90;6.20;;;;;;;;;;111932;214;192773;-33
2023/09/22 15:30:43;;;;;;;8.20;6.40;;;;;;;;;;112146;214;42812;-34
2023/09/22 15:33:18;;;;;;;9.50;6.10;;;;;;;;;;112139;214;42480;-33